Time;durP1;ratioP1;P1;durP2;ratioP2;P2;SDS_P1;SDS_P2;PMS_P1;PMS_P2;Temp;Humidity;BMP_temperature;BMP_pressure;BME280_temperature;BME280_humidity;BME280_pressure;Samples;Min_cycle;Max_cycle;Signal;HPM_P1;HPM_P2
2023/08/06 00:00:30;;;;;;;7.93;4.63;;;;;;;16.80;100.00;100371.91;5062956;28;20472;-74
2023/08/06 00:02:56;;;;;;;9.07;5.22;;;;;;;16.80;100.00;100374.53;5074871;28;20056;-73
2023/08/06 00:05:23;;;;;;;10.50;4.80;;;;;;;16.84;100.00;100367.06;5066310;28;20075;-73
2023/08/06 00:07:50;;;;;;;8.32;5.18;;;;;;;16.85;100.00;100363.38;5048872;28;20071;-73
2023/08/06 00:10:17;;;;;;;6.47;4.82;;;;;;;16.86;100.00;100374.81;5062028;28;20389;-73
2023/08/06 00:12:44;;;;;;;8.07;5.47;;;;;;;16.83;100.00;100367.25;5055290;28;20047;-73
2023/08/06 00:15:11;;;;;;;9.15;6.00;;;;;;;16.84;100.00;100368.88;5067104;28;20071;-73
2023/08/06 00:17:38;;;;;;;9.25;6.57;;;;;;;16.79;100.00;100366.78;5079119;28;20048;-73
2023/08/06 00:20:06;;;;;;;8.80;6.47;;;;;;;16.80;100.00;100369.25;5039195;28;20630;-73
2023/08/06 00:22:34;;;;;;;14.18;7.28;;;;;;;16.82;100.00;100362.94;5074160;28;20084;-73
2023/08/06 00:25:01;;;;;;;9.45;7.00;;;;;;;16.79;100.00;100358.84;5041645;28;20484;-73
2023/08/06 00:27:28;;;;;;;11.23;7.60;;;;;;;16.80;100.00;100363.94;5067425;28;20478;-73
2023/08/06 00:29:55;;;;;;;8.57;6.55;;;;;;;16.79;100.00;100361.50;5077691;28;20052;-73
2023/08/06 00:32:22;;;;;;;10.25;6.72;;;;;;;16.78;100.00;100359.88;5077780;28;20048;-74
2023/08/06 00:34:51;;;;;;;11.20;7.32;;;;;;;16.79;100.00;100364.94;5076418;28;20052;-74
2023/08/06 00:37:18;;;;;;;11.25;7.65;;;;;;;16.73;100.00;100357.81;5065665;28;20070;-73
2023/08/06 00:39:44;;;;;;;10.45;7.32;;;;;;;16.75;100.00;100358.41;5064014;28;20103;-74
2023/08/06 00:42:11;;;;;;;9.75;7.50;;;;;;;16.75;100.00;100360.25;5048229;28;20048;-74
2023/08/06 00:44:38;;;;;;;10.75;7.03;;;;;;;16.77;100.00;100361.69;5085594;28;20060;-73
2023/08/06 00:47:07;;;;;;;11.00;7.75;;;;;;;16.76;100.00;100362.72;5046131;28;20151;-73
2023/08/06 00:49:35;;;;;;;10.35;8.07;;;;;;;16.73;100.00;100363.09;5077827;28;20052;-73
2023/08/06 00:52:03;;;;;;;;;;;;;;;16.74;100.00;100359.44;5069997;28;20052;-73
2023/08/06 00:54:31;;;;;;;10.95;7.85;;;;;;;16.73;100.00;100360.44;5067046;28;19932;-73
2023/08/06 00:56:59;;;;;;;10.10;6.72;;;;;;;16.75;100.00;100358.41;5068623;28;20064;-73
2023/08/06 00:59:27;;;;;;;12.57;8.05;;;;;;;16.75;100.00;100358.41;5054960;28;20055;-74
2023/08/06 01:01:53;;;;;;;12.50;7.15;;;;;;;16.69;100.00;100369.81;5063926;28;20147;-73
2023/08/06 01:04:20;;;;;;;9.70;5.65;;;;;;;16.66;100.00;100364.91;5042380;28;20048;-74
2023/08/06 01:06:48;;;;;;;10.02;5.70;;;;;;;16.65;100.00;100357.16;5063997;28;20052;-73
2023/08/06 01:09:41;;;;;;;9.52;5.38;;;;;;;16.66;100.00;100367.56;5064041;28;20060;-73
2023/08/06 01:12:20;;;;;;;7.57;4.82;;;;;;;16.67;100.00;100363.88;5044022;28;20055;-73
2023/08/06 01:15:07;;;;;;;10.05;4.70;;;;;;;16.63;100.00;100357.34;5056073;28;20149;-73
2023/08/06 01:17:35;;;;;;;6.40;4.30;;;;;;;16.65;100.00;100362.47;5066512;28;20048;-73
2023/08/06 01:20:01;;;;;;;8.35;4.40;;;;;;;16.66;100.00;100359.63;5061454;28;20059;-73
2023/08/06 01:22:28;;;;;;;6.35;4.40;;;;;;;16.64;100.00;100359.00;5065833;28;20052;-74
2023/08/06 01:24:55;;;;;;;6.05;4.20;;;;;;;16.66;100.00;100361.44;5068925;28;20052;-73
2023/08/06 01:27:49;;;;;;;6.47;4.30;;;;;;;16.66;100.00;100356.97;5061123;28;20052;-74
2023/08/06 01:30:20;;;;;;;7.88;4.75;;;;;;;16.67;100.00;100355.13;5070605;28;20059;-74
2023/08/06 01:32:53;;;;;;;7.00;5.25;;;;;;;16.64;100.00;100355.53;5070292;28;20052;-74
2023/08/06 01:35:22;;;;;;;8.10;5.53;;;;;;;16.62;100.00;100350.41;5046939;28;20097;-73
2023/08/06 01:37:49;;;;;;;6.57;4.72;;;;;;;16.58;100.00;100344.72;5058125;28;20361;-74
2023/08/06 01:40:16;;;;;;;7.40;5.50;;;;;;;16.61;100.00;100343.50;5074552;28;20493;-74
2023/08/06 01:42:42;;;;;;;8.88;5.72;;;;;;;16.60;100.00;100347.16;5081802;28;20167;-74
2023/08/06 01:45:10;;;;;;;9.63;5.82;;;;;;;16.54;100.00;100345.28;5072387;28;20154;-74
2023/08/06 01:47:36;;;;;;;8.85;6.47;;;;;;;16.55;100.00;100344.28;5066309;28;20474;-74
2023/08/06 01:50:03;;;;;;;11.57;6.60;;;;;;;16.56;100.00;100349.41;5071408;28;20045;-74
2023/08/06 01:52:30;;;;;;;10.82;7.28;;;;;;;16.57;100.00;100352.84;5061600;28;20490;-73
2023/08/06 01:54:57;;;;;;;9.57;6.75;;;;;;;16.60;100.00;100350.63;5051586;28;20053;-74
2023/08/06 01:57:23;;;;;;;10.52;7.47;;;;;;;16.60;100.00;100344.50;5066645;28;20080;-74
2023/08/06 01:59:50;;;;;;;10.75;7.57;;;;;;;16.59;100.00;100349.00;5068927;28;20047;-74
2023/08/06 02:02:16;;;;;;;12.15;8.15;;;;;;;16.62;100.00;100350.41;5061159;28;20058;-74
2023/08/06 02:04:43;;;;;;;11.15;8.63;;;;;;;16.62;100.00;100342.47;5073777;28;20049;-74
2023/08/06 02:07:09;;;;;;;11.57;8.77;;;;;;;16.63;100.00;100340.66;5076723;28;20071;-73
2023/08/06 02:09:36;;;;;;;12.77;9.00;;;;;;;16.59;100.00;100340.25;5068433;28;20135;-74
2023/08/06 02:12:03;;;;;;;10.70;9.30;;;;;;;16.57;100.00;100340.44;5069037;28;20500;-74
2023/08/06 02:14:30;;;;;;;12.27;9.13;;;;;;;16.57;100.00;100348.38;5069142;28;20058;-74
2023/08/06 02:16:56;;;;;;;14.70;9.88;;;;;;;16.53;100.00;100344.50;5070745;28;20494;-74
2023/08/06 02:19:23;;;;;;;11.00;9.48;;;;;;;16.57;100.00;100345.72;5081681;28;20099;-73
2023/08/06 02:21:49;;;;;;;11.38;9.65;;;;;;;16.56;100.00;100337.97;5061422;28;20048;-74
2023/08/06 02:24:16;;;;;;;13.07;9.40;;;;;;;16.56;100.00;100341.47;5084737;28;20097;-74
2023/08/06 02:26:43;;;;;;;15.23;9.80;;;;;;;16.55;100.00;100336.34;5057918;28;20052;-74
2023/08/06 02:29:10;;;;;;;12.23;9.15;;;;;;;16.50;100.00;100328.16;5046831;28;20048;-74
2023/08/06 02:31:36;;;;;;;12.60;9.40;;;;;;;16.55;100.00;100331.88;5044999;28;20113;-74
2023/08/06 02:34:03;;;;;;;11.90;9.32;;;;;;;16.53;100.00;100325.94;5050910;28;20123;-73
2023/08/06 02:36:29;;;;;;;16.35;9.77;;;;;;;16.50;100.00;100323.69;5080007;28;20136;-73
2023/08/06 02:38:56;;;;;;;12.45;9.38;;;;;;;16.50;100.00;100321.03;5070706;28;20048;-72
2023/08/06 02:41:22;;;;;;;11.93;9.07;;;;;;;16.50;100.00;100326.34;5046070;28;20053;-73
2023/08/06 02:43:49;;;;;;;12.52;9.38;;;;;;;16.49;100.00;100318.63;5061240;28;20102;-72
2023/08/06 02:46:16;;;;;;;11.55;9.27;;;;;;;16.50;100.00;100313.09;5073369;28;20071;-73
2023/08/06 02:48:42;;;;;;;12.57;9.45;;;;;;;16.47;100.00;100312.69;5062989;28;20055;-72
2023/08/06 02:51:09;;;;;;;12.43;9.27;;;;;;;16.50;100.00;100317.59;5075627;28;20088;-73
2023/08/06 02:53:35;;;;;;;10.93;9.43;;;;;;;16.52;100.00;100315.56;5086900;28;20345;-71
2023/08/06 02:56:02;;;;;;;10.15;8.73;;;;;;;16.51;100.00;100313.94;5061331;28;20063;-72
2023/08/06 02:58:29;;;;;;;13.40;8.82;;;;;;;16.52;100.00;100311.06;5082458;28;20048;-73
2023/08/06 03:01:03;;;;;;;9.35;8.40;;;;;;;16.55;100.00;100315.97;5061948;28;20083;-72
2023/08/06 03:03:31;;;;;;;12.38;9.60;;;;;;;16.55;100.00;100315.16;5063521;28;20039;-71
2023/08/06 03:05:58;;;;;;;11.90;8.97;;;;;;;16.51;100.00;100312.09;5050030;28;20703;-72
2023/08/06 03:08:25;;;;;;;12.48;9.07;;;;;;;16.51;100.00;100316.59;5085255;28;20072;-72
2023/08/06 03:10:52;;;;;;;10.73;8.93;;;;;;;16.49;100.00;100308.84;5066082;28;20547;-72
2023/08/06 03:13:19;;;;;;;10.48;8.77;;;;;;;16.52;100.00;100313.72;5070186;28;20052;-72
2023/08/06 03:15:56;;;;;;;11.60;8.82;;;;;;;16.52;100.00;100307.59;5084936;28;20044;-73
2023/08/06 03:18:23;;;;;;;12.20;8.82;;;;;;;16.48;100.00;100307.19;5060983;28;20053;-72
2023/08/06 03:20:49;;;;;;;9.95;8.13;;;;;;;16.45;100.00;100294.38;5051419;28;20063;-73
2023/08/06 03:23:16;;;;;;;12.15;9.45;;;;;;;16.44;100.00;100308.59;5069531;28;20137;-72
2023/08/06 03:25:43;;;;;;;11.25;8.32;;;;;;;16.43;100.00;100300.88;5073297;28;20052;-72
2023/08/06 03:28:09;;;;;;;10.82;8.60;;;;;;;16.45;100.00;100299.66;5068039;28;20083;-72
2023/08/06 03:30:36;;;;;;;11.88;8.77;;;;;;;16.44;100.00;100298.00;5063121;28;20056;-72
2023/08/06 03:33:02;;;;;;;12.23;9.38;;;;;;;16.43;100.00;100301.69;5078165;28;20084;-72
2023/08/06 03:35:29;;;;;;;12.02;9.13;;;;;;;16.44;100.00;100305.94;5070305;28;20052;-72
2023/08/06 03:37:56;;;;;;;10.02;8.02;;;;;;;16.45;100.00;100301.50;5057324;28;20066;-73
2023/08/06 03:40:23;;;;;;;11.35;10.00;;;;;;;16.44;100.00;100305.13;5061950;28;20046;-72
2023/08/06 03:42:49;;;;;;;13.32;10.15;;;;;;;16.47;100.00;100299.47;5062040;28;20469;-72
2023/08/06 03:45:16;;;;;;;12.30;9.13;;;;;;;16.45;100.00;100297.00;5078587;28;20048;-72
2023/08/06 03:47:42;;;;;;;11.35;9.35;;;;;;;16.46;100.00;100297.81;5062649;28;20136;-72
2023/08/06 03:50:09;;;;;;;12.85;9.98;;;;;;;16.51;100.00;100300.69;5067653;28;20044;-71
2023/08/06 03:52:36;;;;;;;11.10;9.32;;;;;;;16.42;100.00;100292.09;5054662;28;20083;-72
2023/08/06 03:55:03;;;;;;;12.52;10.00;;;;;;;16.45;100.00;100304.94;5060294;28;20062;-72
2023/08/06 03:57:29;;;;;;;12.18;9.90;;;;;;;16.48;100.00;100303.72;5053916;28;20462;-72
2023/08/06 03:59:56;;;;;;;16.13;10.45;;;;;;;16.49;100.00;100300.88;5077347;28;20044;-72
2023/08/06 04:02:22;;;;;;;12.02;9.98;;;;;;;16.49;100.00;100306.19;5075687;28;20118;-72
2023/08/06 04:04:49;;;;;;;11.90;9.65;;;;;;;16.52;100.00;100310.25;5045994;28;20056;-73
2023/08/06 04:07:16;;;;;;;11.15;9.23;;;;;;;16.51;100.00;100296.22;5053755;28;20060;-73
2023/08/06 04:09:58;;;;;;;17.92;10.30;;;;;;;16.54;100.00;100297.63;5074619;28;20109;-72
2023/08/06 04:12:25;;;;;;;12.55;9.88;;;;;;;16.51;100.00;100306.81;5085296;28;20056;-72
2023/08/06 04:14:52;;;;;;;13.95;10.00;;;;;;;16.51;100.00;100301.50;5052256;28;20094;-72
2023/08/06 04:17:23;;;;;;;14.20;9.80;;;;;;;16.51;100.00;100304.16;5046952;28;20452;-72
2023/08/06 04:19:51;;;;;;;14.27;9.65;;;;;;;16.51;100.00;100306.81;5052643;28;20493;-73
2023/08/06 04:22:19;;;;;;;13.25;9.98;;;;;;;16.51;100.00;100303.34;5060927;28;20052;-72
2023/08/06 04:24:45;;;;;;;14.10;9.77;;;;;;;16.52;100.00;100304.97;5054170;28;20496;-72
2023/08/06 04:27:13;;;;;;;12.23;9.95;;;;;;;16.53;100.00;100307.41;5057476;28;20102;-72
2023/08/06 04:29:40;;;;;;;13.35;10.35;;;;;;;16.56;100.00;100300.91;5061089;28;20109;-73
2023/08/06 04:32:09;;;;;;;15.00;10.70;;;;;;;16.57;100.00;100306.00;5065792;28;20051;-72
2023/08/06 04:34:36;;;;;;;15.20;11.52;;;;;;;16.60;100.00;100310.09;5072774;28;20048;-73
2023/08/06 04:37:04;;;;;;;11.93;9.90;;;;;;;16.60;100.00;100310.09;5071749;28;20086;-72
2023/08/06 04:39:30;;;;;;;12.18;9.70;;;;;;;16.59;100.00;100311.91;5066191;28;20043;-72
2023/08/06 04:42:00;;;;;;;11.82;9.52;;;;;;;16.59;100.00;100311.09;5076872;28;20056;-72
2023/08/06 04:44:26;;;;;;;11.05;9.38;;;;;;;16.63;100.00;100315.00;5079591;28;20040;-72
2023/08/06 04:46:53;;;;;;;11.45;9.18;;;;;;;16.64;100.00;100321.09;5083293;28;20086;-72
2023/08/06 04:49:22;;;;;;;13.55;9.80;;;;;;;16.64;100.00;100318.44;5072473;28;20134;-72
2023/08/06 04:51:49;;;;;;;11.38;9.23;;;;;;;16.64;100.00;100314.00;5088469;28;20084;-72
2023/08/06 04:54:15;;;;;;;13.73;9.77;;;;;;;16.69;100.00;100324.78;5067869;28;20051;-72
2023/08/06 04:56:42;;;;;;;11.80;8.68;;;;;;;16.70;100.00;100326.44;5075403;28;20450;-73
2023/08/06 04:59:09;;;;;;;12.13;9.60;;;;;;;16.73;100.00;100320.72;5064141;28;20053;-72
2023/08/06 05:01:35;;;;;;;11.30;9.25;;;;;;;16.76;100.00;100323.00;5046990;28;20071;-72
2023/08/06 05:04:02;;;;;;;14.02;9.45;;;;;;;16.78;100.00;100325.44;5068853;28;20128;-72
2023/08/06 05:06:29;;;;;;;11.95;9.68;;;;;;;16.76;100.00;100330.13;5052416;28;20056;-72
2023/08/06 05:08:55;;;;;;;14.02;9.45;;;;;;;16.75;100.00;100320.53;5072951;28;20061;-72
2023/08/06 05:11:22;;;;;;;12.15;9.48;;;;;;;16.77;100.00;100321.94;5080274;28;20679;-73
2023/08/06 05:13:48;;;;;;;16.23;10.07;;;;;;;16.82;100.00;100325.88;5058035;28;20139;-72
2023/08/06 05:16:15;;;;;;;13.30;9.77;;;;;;;16.85;100.00;100323.63;5062149;28;20043;-73
2023/08/06 05:18:42;;;;;;;14.15;10.80;;;;;;;16.91;100.00;100332.63;5051536;28;20051;-72
2023/08/06 05:21:08;;;;;;;14.48;10.82;;;;;;;16.89;100.00;100327.53;5070898;28;20087;-72
2023/08/06 05:23:35;;;;;;;14.55;11.52;;;;;;;16.93;100.00;100335.88;5071782;28;20059;-72
2023/08/06 05:26:01;;;;;;;14.65;9.50;;;;;;;16.98;100.00;100336.94;5065906;28;20044;-74
2023/08/06 05:28:28;;;;;;;12.55;10.05;;;;;;;17.01;100.00;100335.69;5085033;28;20063;-73
2023/08/06 05:30:54;;;;;;;13.13;10.15;;;;;;;17.04;100.00;100345.09;5057420;28;20143;-72
2023/08/06 05:33:21;;;;;;;11.07;9.57;;;;;;;17.05;100.00;100336.94;5071025;28;20059;-73
2023/08/06 05:35:49;;;;;;;12.68;9.00;;;;;;;17.08;100.00;100351.63;5049722;28;20056;-73
2023/08/06 05:38:17;;;;;;;13.60;9.65;;;;;;;17.07;100.00;100349.97;5071738;28;20139;-74
2023/08/06 05:40:44;;;;;;;11.85;8.80;;;;;;;17.11;100.00;100354.69;5064693;28;20457;-72
2023/08/06 05:43:10;;;;;;;11.65;9.75;;;;;;;17.12;100.00;100358.97;5071149;28;20547;-72
2023/08/06 05:45:36;;;;;;;13.90;9.98;;;;;;;17.13;100.00;100351.81;5059115;28;20044;-71
2023/08/06 05:48:03;;;;;;;13.30;11.00;;;;;;;17.16;100.00;100364.69;5081140;28;20055;-71
2023/08/06 05:50:30;;;;;;;14.75;11.98;;;;;;;17.20;100.00;100369.38;5071301;28;20044;-72
2023/08/06 05:52:57;;;;;;;15.48;11.27;;;;;;;17.21;100.00;100370.22;5049171;28;20454;-72
2023/08/06 05:55:27;;;;;;;15.57;11.63;;;;;;;17.24;100.00;100371.63;5047822;28;20075;-71
2023/08/06 05:57:54;;;;;;;15.55;12.82;;;;;;;17.27;100.00;100369.41;5063880;28;20060;-73
2023/08/06 06:00:21;;;;;;;14.77;12.48;;;;;;;17.28;100.00;100370.22;5056370;28;20705;-72
2023/08/06 06:02:48;;;;;;;14.40;12.55;;;;;;;17.26;100.00;100378.34;5070146;28;20052;-72
2023/08/06 06:05:15;;;;;;;15.35;12.52;;;;;;;17.27;100.00;100376.53;5077764;28;20044;-72
2023/08/06 06:07:41;;;;;;;16.20;13.85;;;;;;;17.26;100.00;100374.91;5077541;28;20044;-73
2023/08/06 06:10:08;;;;;;;16.38;13.30;;;;;;;17.28;100.00;100378.16;5068083;28;20055;-72
2023/08/06 06:12:35;;;;;;;15.13;13.35;;;;;;;17.30;100.00;100381.44;5061298;28;20045;-72
2023/08/06 06:15:01;;;;;;;17.63;12.98;;;;;;;17.29;100.00;100385.09;5073640;28;20093;-73
2023/08/06 06:17:28;;;;;;;20.17;13.88;;;;;;;17.31;100.00;100391.03;5062280;28;20048;-72
2023/08/06 06:19:55;;;;;;;15.07;12.73;;;;;;;17.32;100.00;100390.00;5068281;28;20064;-73
2023/08/06 06:22:21;;;;;;;15.85;12.95;;;;;;;17.30;100.00;100397.34;5068437;28;20087;-72
2023/08/06 06:24:48;;;;;;;15.57;12.77;;;;;;;17.31;100.00;100386.53;5061758;28;20076;-74
2023/08/06 06:27:14;;;;;;;13.85;11.18;;;;;;;17.35;100.00;100393.06;5064184;28;20072;-72
2023/08/06 06:29:41;;;;;;;14.07;11.70;;;;;;;17.37;100.00;100395.53;5068696;28;20527;-73
2023/08/06 06:32:07;;;;;;;12.80;10.20;;;;;;;17.39;100.00;100398.78;5081635;28;20098;-72
2023/08/06 06:34:34;;;;;;;11.98;10.43;;;;;;;17.43;100.00;100405.31;5056777;28;20056;-72
2023/08/06 06:37:01;;;;;;;11.82;9.10;;;;;;;17.45;100.00;100413.06;5062916;28;20048;-73
2023/08/06 06:39:28;;;;;;;10.40;8.23;;;;;;;17.43;100.00;100417.78;5044839;28;20044;-73
2023/08/06 06:41:54;;;;;;;8.98;7.20;;;;;;;17.40;100.00;100418.97;5068016;28;20051;-73
2023/08/06 06:44:21;;;;;;;9.10;6.53;;;;;;;17.39;100.00;100409.41;5073875;28;20105;-73
2023/08/06 06:46:48;;;;;;;10.38;7.75;;;;;;;17.41;100.00;100420.63;5064700;28;20058;-73
2023/08/06 06:49:14;;;;;;;8.82;7.60;;;;;;;17.43;100.00;100423.06;5064032;28;20137;-73
2023/08/06 06:51:41;;;;;;;10.60;8.73;;;;;;;17.47;100.00;100419.81;5081569;28;20303;-72
2023/08/06 06:54:07;;;;;;;11.90;8.23;;;;;;;17.48;100.00;100421.41;5079707;28;20040;-72
2023/08/06 06:56:34;;;;;;;10.23;7.57;;;;;;;17.48;100.00;100421.41;5060751;28;20478;-72
2023/08/06 06:59:00;;;;;;;8.75;7.10;;;;;;;17.50;100.00;100421.22;5076817;28;20095;-72
2023/08/06 07:01:27;;;;;;;9.15;7.15;;;;;;;17.52;100.00;100427.16;5079561;28;20504;-72
2023/08/06 07:03:54;;;;;;;9.30;7.30;;;;;;;17.53;100.00;100426.94;5076272;28;20056;-72
2023/08/06 07:06:20;;;;;;;10.73;7.88;;;;;;;17.57;100.00;100430.03;5090222;28;20722;-72
2023/08/06 07:08:47;;;;;;;11.20;9.20;;;;;;;17.59;100.00;100420.84;5064935;28;20110;-73
2023/08/06 07:11:14;;;;;;;12.43;9.48;;;;;;;17.59;100.00;100430.63;5078939;28;20516;-72
2023/08/06 07:13:40;;;;;;;11.77;9.32;;;;;;;17.58;100.00;100431.63;5076876;28;20075;-72
2023/08/06 07:16:07;;;;;;;13.32;10.25;;;;;;;17.59;100.00;100433.28;5077549;28;20055;-72
2023/08/06 07:18:37;;;;;;;16.05;11.98;;;;;;;17.58;100.00;100437.78;5076027;28;20073;-73
2023/08/06 07:21:03;;;;;;;12.30;10.77;;;;;;;17.61;100.00;100444.50;5070792;28;20040;-73
2023/08/06 07:23:30;;;;;;;13.48;11.13;;;;;;;17.62;100.00;100440.00;5080335;28;20048;-73
2023/08/06 07:25:56;;;;;;;15.55;11.55;;;;;;;17.63;100.00;100445.13;5057092;28;20083;-73
2023/08/06 07:28:23;;;;;;;16.15;11.38;;;;;;;17.64;100.00;100443.28;5096885;28;20044;-73
2023/08/06 07:30:49;;;;;;;14.75;11.07;;;;;;;17.60;100.00;100440.22;5058413;28;20090;-72
2023/08/06 07:33:16;;;;;;;17.55;11.73;;;;;;;17.61;100.00;100441.03;5077242;28;20063;-73
2023/08/06 07:35:43;;;;;;;15.23;11.57;;;;;;;17.64;100.00;100443.28;5063656;28;20110;-73
2023/08/06 07:38:10;;;;;;;15.68;12.70;;;;;;;17.67;100.00;100448.19;5075634;28;20066;-73
2023/08/06 07:40:37;;;;;;;16.90;12.55;;;;;;;17.70;100.00;100447.78;5075882;28;20052;-73
2023/08/06 07:43:03;;;;;;;15.77;12.68;;;;;;;17.72;100.00;100451.88;5068438;28;20080;-73
2023/08/06 07:45:35;;;;;;;19.77;13.48;;;;;;;17.77;100.00;100448.59;5079072;28;20057;-72
2023/08/06 07:48:02;;;;;;;21.70;13.98;;;;;;;17.82;100.00;100459.44;5060724;28;20089;-73
2023/08/06 07:50:29;;;;;;;19.50;14.05;;;;;;;17.83;100.00;100450.44;5064123;28;20040;-74
2023/08/06 07:52:55;;;;;;;18.08;14.38;;;;;;;17.90;100.00;100456.59;5056024;28;20759;-74
2023/08/06 07:55:22;;;;;;;16.25;13.93;;;;;;;17.90;100.00;100456.59;5067840;28;20092;-73
2023/08/06 07:57:49;;;;;;;18.05;13.90;;;;;;;17.93;100.00;100448.22;5044915;28;20118;-73
2023/08/06 08:00:15;;;;;;;15.55;12.90;;;;;;;17.97;100.00;100457.44;5055171;28;20476;-74
2023/08/06 08:02:42;;;;;;;16.48;12.70;;;;;;;17.98;100.00;100448.44;5081544;28;20075;-74
2023/08/06 08:05:09;;;;;;;14.82;11.93;;;;;;;18.07;100.00;100456.19;5075679;28;20052;-74
2023/08/06 08:07:35;;;;;;;18.58;11.85;;;;;;;18.17;100.00;100454.78;5064235;28;20473;-74
2023/08/06 08:10:01;;;;;;;14.73;11.80;;;;;;;18.22;100.00;100448.84;5079102;28;20131;-74
2023/08/06 08:12:28;;;;;;;14.18;12.32;;;;;;;18.27;100.00;100454.34;5054287;28;20495;-73
2023/08/06 08:14:54;;;;;;;14.20;11.85;;;;;;;18.25;100.00;100450.25;5065914;28;20500;-73
2023/08/06 08:17:21;;;;;;;12.75;11.30;;;;;;;18.30;100.00;100455.78;5075884;28;20330;-74
2023/08/06 08:19:48;;;;;;;14.63;10.65;;;;;;;18.31;100.00;100458.22;5085432;28;20052;-74
2023/08/06 08:22:14;;;;;;;13.68;10.75;;;;;;;18.28;100.00;100450.66;5059738;28;20079;-74
2023/08/06 08:24:41;;;;;;;12.57;11.25;;;;;;;18.40;100.00;100461.47;5079974;28;20048;-74
2023/08/06 08:27:07;;;;;;;12.15;10.75;;;;;;;18.41;100.00;100455.16;5076960;28;20083;-74
2023/08/06 08:29:34;;;;;;;12.32;9.77;;;;;;;18.43;100.00;100450.44;5076670;28;20058;-74
2023/08/06 08:32:00;;;;;;;11.30;9.25;;;;;;;18.45;100.00;100455.56;5082285;28;20098;-74
2023/08/06 08:34:27;;;;;;;12.15;10.23;;;;;;;18.51;100.00;100452.06;5056537;28;20128;-74
2023/08/06 08:36:53;;;;;;;11.18;9.77;;;;;;;18.49;100.00;100460.25;5082367;28;20043;-73
2023/08/06 08:39:20;;;;;;;10.88;9.77;;;;;;;18.47;100.00;100456.97;5079347;28;20501;-74
2023/08/06 08:41:46;;;;;;;10.82;9.60;;;;;;;18.56;100.00;100465.53;5052158;28;20044;-75
2023/08/06 08:44:16;;;;;;;11.77;9.32;;;;;;;18.62;100.00;100462.06;5080957;28;20044;-74
2023/08/06 08:46:44;;;;;;;10.60;9.50;;;;;;;18.67;100.00;100461.44;5073670;28;20080;-74
2023/08/06 08:49:11;;;;;;;9.07;8.18;;;;;;;18.75;100.00;100456.69;5084810;28;20066;-74
2023/08/06 08:51:37;;;;;;;12.75;8.65;;;;;;;18.86;100.00;100462.44;5076430;28;20049;-75
2023/08/06 08:54:07;;;;;;;10.38;9.27;;;;;;;18.93;100.00;100463.22;5074569;28;20047;-75
2023/08/06 08:56:34;;;;;;;10.52;9.35;;;;;;;18.97;100.00;100459.09;5081544;28;20055;-74
2023/08/06 08:59:00;;;;;;;9.05;8.15;;;;;;;19.04;100.00;100467.06;5057694;28;20155;-74
2023/08/06 09:01:28;;;;;;;10.25;8.45;;;;;;;19.00;100.00;100465.84;5082402;28;20047;-74
2023/08/06 09:03:56;;;;;;;12.43;9.68;;;;;;;19.07;100.00;100462.16;5075828;28;20136;-74
2023/08/06 09:06:25;;;;;;;;;;;;;;;19.17;100.00;100464.34;5079932;28;20490;-74
2023/08/06 09:09:01;;;;;;;10.95;8.70;;;;;;;19.23;100.00;100462.66;5052959;28;20236;-74
2023/08/06 09:11:31;;;;;;;10.50;9.07;;;;;;;19.27;100.00;100463.91;5085069;28;20047;-74
2023/08/06 09:13:57;;;;;;;11.48;9.63;;;;;;;19.35;100.00;100466.31;5086222;28;20564;-73
2023/08/06 09:16:24;;;;;;;11.65;8.90;;;;;;;19.31;100.00;100468.56;5061377;28;20071;-74
2023/08/06 09:18:51;;;;;;;10.88;9.70;;;;;;;19.33;100.00;100471.84;5069792;28;20113;-74
2023/08/06 09:21:18;;;;;;;11.18;9.27;;;;;;;19.29;100.00;100472.47;5073911;28;20139;-73
2023/08/06 09:23:44;;;;;;;11.10;8.63;;;;;;;19.33;100.00;100469.19;5063593;28;20157;-73
2023/08/06 09:26:12;;;;;;;10.80;8.90;;;;;;;19.45;100.00;100476.50;5060784;28;20093;-74
2023/08/06 09:28:43;;;;;;;9.88;8.65;;;;;;;19.44;100.00;100480.97;5084932;28;20056;-74
2023/08/06 09:31:10;;;;;;;11.52;8.73;;;;;;;19.39;100.00;100478.16;5084522;28;20047;-74
2023/08/06 09:33:38;;;;;;;13.85;9.25;;;;;;;19.34;100.00;100481.44;5058594;28;20043;-74
2023/08/06 09:36:11;;;;;;;11.38;8.38;;;;;;;19.42;100.00;100483.03;5078733;28;20119;-75
2023/08/06 09:38:40;;;;;;;9.57;8.45;;;;;;;19.43;100.00;100484.66;5077416;28;20052;-74
2023/08/06 09:41:07;;;;;;;12.40;8.70;;;;;;;19.49;100.00;100491.00;5069441;28;20044;-73
2023/08/06 09:43:41;;;;;;;9.97;7.63;;;;;;;19.48;100.00;100479.53;5057594;28;20044;-74
2023/08/06 09:46:16;;;;;;;9.63;7.25;;;;;;;19.54;100.00;100486.66;5066973;28;20063;-76
2023/08/06 09:48:46;;;;;;;10.30;8.13;;;;;;;19.55;100.00;100496.25;5080913;28;20134;-74
2023/08/06 09:51:13;;;;;;;10.65;7.88;;;;;;;19.52;100.00;100493.22;5056721;28;20048;-73
2023/08/06 09:53:41;;;;;;;8.25;6.28;;;;;;;19.41;100.00;100496.56;5084154;28;20044;-73
2023/08/06 09:56:09;;;;;;;;;;;;;;;19.40;100.00;100495.72;5081286;28;20418;-73
2023/08/06 09:58:37;;;;;;;7.03;6.03;;;;;;;19.30;100.00;100500.69;5069103;28;20388;-72
2023/08/06 10:01:04;;;;;;;8.70;5.47;;;;;;;19.17;100.00;100501.59;5074471;28;20542;-74
2023/08/06 10:03:33;;;;;;;7.82;5.07;;;;;;;19.05;100.00;100496.09;5080639;28;20089;-73
2023/08/06 10:06:02;;;;;;;6.93;5.32;;;;;;;18.95;100.00;100501.88;5081579;28;20576;-72
2023/08/06 10:08:28;;;;;;;7.43;5.75;;;;;;;18.83;100.00;100500.84;5078243;28;20109;-73
2023/08/06 10:10:57;;;;;;;6.55;5.72;;;;;;;18.73;100.00;100509.22;5065666;28;20056;-73
2023/08/06 10:13:24;;;;;;;8.55;6.50;;;;;;;18.66;100.00;100513.75;5058359;28;20048;-73
2023/08/06 10:15:52;;;;;;;7.37;4.93;;;;;;;18.50;100.00;100516.81;5081917;28;20051;-74
2023/08/06 10:18:22;;;;;;;5.07;4.07;;;;;;;18.21;100.00;100516.25;5073907;28;20311;-74
2023/08/06 10:20:48;;;;;;;4.63;3.78;;;;;;;18.14;100.00;100526.03;5082064;28;20492;-74
2023/08/06 10:23:15;;;;;;;6.32;4.00;;;;;;;18.07;100.00;100530.50;5085841;28;20113;-74
2023/08/06 10:25:43;;;;;;;7.97;7.18;;;;;;;17.95;100.00;100528.47;5078120;28;20105;-74
2023/08/06 10:28:11;;;;;;;11.63;10.43;;;;;;;17.88;100.00;100537.44;5067035;28;20453;-75
2023/08/06 10:30:45;;;;;;;9.23;7.05;;;;;;;17.58;100.00;100546.50;5058911;28;20075;-74
2023/08/06 10:33:11;;;;;;;7.30;2.75;;;;;;;17.38;100.00;100548.25;5084518;28;20536;-74
2023/08/06 10:35:50;;;;;;;3.60;2.53;;;;;;;17.30;100.00;100556.38;5076682;28;20093;-74
2023/08/06 10:38:21;;;;;;;2.53;1.40;;;;;;;17.20;100.00;100551.44;5081780;28;20054;-73
2023/08/06 10:41:00;;;;;;;4.03;1.50;;;;;;;17.08;100.00;100553.81;5078462;28;20735;-72
2023/08/06 10:43:27;;;;;;;;;;;;;;;16.89;100.00;100559.81;5072575;28;20523;-73
2023/08/06 10:45:54;;;;;;;3.50;1.00;;;;;;;16.89;100.00;100567.78;5083080;28;19928;-73
2023/08/06 10:48:41;;;;;;;1.05;0.80;;;;;;;16.73;100.00;100566.22;5073932;28;20090;-73
2023/08/06 10:51:10;;;;;;;1.35;1.17;;;;;;;16.71;100.00;100565.59;5085699;28;20451;-72
2023/08/06 10:53:38;;;;;;;5.18;1.50;;;;;;;16.45;100.00;100561.72;5057036;28;20063;-72
2023/08/06 10:56:22;;;;;;;1.50;1.10;;;;;;;16.42;100.00;100564.75;5059896;28;20466;-73
2023/08/06 10:58:50;;;;;;;1.80;1.10;;;;;;;16.35;100.00;100567.34;5074141;28;20526;-73
2023/08/06 11:01:17;;;;;;;;;;;;;;;16.38;100.00;100571.44;5083495;28;20048;-74
2023/08/06 11:03:46;;;;;;;4.20;1.30;;;;;;;16.27;100.00;100572.78;5067031;28;19935;-74
2023/08/06 11:06:19;;;;;;;2.90;1.60;;;;;;;16.20;100.00;100583.28;5076097;28;20504;-74
2023/08/06 11:08:54;;;;;;;4.43;1.98;;;;;;;16.26;100.00;100575.59;5077389;28;20052;-74
2023/08/06 11:11:22;;;;;;;4.25;1.80;;;;;;;16.24;100.00;100577.63;5051818;28;20052;-74
2023/08/06 11:13:50;;;;;;;3.72;1.60;;;;;;;16.19;100.00;100579.03;5080784;28;20105;-73